sensor_id;sensor_type;location;lat;lon;timestamp;pressure;altitude;pressure_sealevel;temperature;humidity
34065;BME280;20339;49.754;20.158;2023-02-12T00:02:21;97770.48;;;2.35;100.00
34065;BME280;20339;49.754;20.158;2023-02-12T00:04:52;97775.88;;;2.36;100.00
34065;BME280;20339;49.754;20.158;2023-02-12T00:07:24;97774.87;;;2.37;100.00
34065;BME280;20339;49.754;20.158;2023-02-12T00:09:55;97771.66;;;2.38;100.00
34065;BME280;20339;49.754;20.158;2023-02-12T00:12:26;97767.87;;;2.38;100.00
34065;BME280;20339;49.754;20.158;2023-02-12T00:14:57;97769.56;;;2.38;100.00
34065;BME280;20339;49.754;20.158;2023-02-12T00:17:28;97765.13;;;2.39;100.00
34065;BME280;20339;49.754;20.158;2023-02-12T00:20:02;97772.23;;;2.40;100.00
34065;BME280;20339;49.754;20.158;2023-02-12T00:22:36;97773.87;;;2.39;100.00
34065;BME280;20339;49.754;20.158;2023-02-12T00:25:08;97778.66;;;2.38;100.00
34065;BME280;20339;49.754;20.158;2023-02-12T00:27:40;97778.10;;;2.38;100.00
34065;BME280;20339;49.754;20.158;2023-02-12T00:30:12;97783.20;;;2.40;100.00
34065;BME280;20339;49.754;20.158;2023-02-12T00:32:45;97776.20;;;2.40;100.00
34065;BME280;20339;49.754;20.158;2023-02-12T00:35:16;97784.02;;;2.38;100.00
34065;BME280;20339;49.754;20.158;2023-02-12T00:37:47;97779.06;;;2.37;100.00
34065;BME280;20339;49.754;20.158;2023-02-12T00:40:19;97780.60;;;2.38;100.00
34065;BME280;20339;49.754;20.158;2023-02-12T00:42:50;97777.92;;;2.40;100.00
34065;BME280;20339;49.754;20.158;2023-02-12T00:45:21;97773.42;;;2.41;100.00
34065;BME280;20339;49.754;20.158;2023-02-12T00:47:55;97782.77;;;2.43;100.00
34065;BME280;20339;49.754;20.158;2023-02-12T00:50:26;97782.48;;;2.45;100.00
34065;BME280;20339;49.754;20.158;2023-02-12T00:52:57;97789.28;;;2.49;100.00
34065;BME280;20339;49.754;20.158;2023-02-12T00:55:33;97787.19;;;2.49;100.00
34065;BME280;20339;49.754;20.158;2023-02-12T00:58:07;97789.73;;;2.46;100.00
34065;BME280;20339;49.754;20.158;2023-02-12T01:00:41;97788.84;;;2.46;100.00
34065;BME280;20339;49.754;20.158;2023-02-12T01:03:12;97789.85;;;2.45;100.00
34065;BME280;20339;49.754;20.158;2023-02-12T01:05:47;97784.58;;;2.46;100.00
34065;BME280;20339;49.754;20.158;2023-02-12T01:08:18;97784.50;;;2.49;100.00
34065;BME280;20339;49.754;20.158;2023-02-12T01:10:55;97786.70;;;2.48;100.00
34065;BME280;20339;49.754;20.158;2023-02-12T01:13:27;97787.98;;;2.45;100.00
34065;BME280;20339;49.754;20.158;2023-02-12T01:16:07;97788.88;;;2.43;100.00
34065;BME280;20339;49.754;20.158;2023-02-12T01:18:41;97787.48;;;2.43;100.00
34065;BME280;20339;49.754;20.158;2023-02-12T01:21:15;97790.33;;;2.45;100.00
34065;BME280;20339;49.754;20.158;2023-02-12T01:23:48;97789.20;;;2.43;100.00
34065;BME280;20339;49.754;20.158;2023-02-12T01:26:20;97788.08;;;2.43;100.00
34065;BME280;20339;49.754;20.158;2023-02-12T01:28:52;97789.95;;;2.40;100.00
34065;BME280;20339;49.754;20.158;2023-02-12T01:31:26;97794.31;;;2.40;100.00
34065;BME280;20339;49.754;20.158;2023-02-12T01:33:59;97795.77;;;2.41;100.00
34065;BME280;20339;49.754;20.158;2023-02-12T01:36:31;97794.67;;;2.43;100.00
34065;BME280;20339;49.754;20.158;2023-02-12T01:39:04;97796.81;;;2.41;100.00
34065;BME280;20339;49.754;20.158;2023-02-12T01:41:40;97802.20;;;2.41;100.00
34065;BME280;20339;49.754;20.158;2023-02-12T01:44:15;97802.05;;;2.41;100.00
34065;BME280;20339;49.754;20.158;2023-02-12T01:46:48;97805.98;;;2.42;100.00
34065;BME280;20339;49.754;20.158;2023-02-12T01:49:23;97803.73;;;2.42;100.00
34065;BME280;20339;49.754;20.158;2023-02-12T01:52:03;97811.30;;;2.40;100.00
34065;BME280;20339;49.754;20.158;2023-02-12T01:54:39;97817.58;;;2.41;100.00
34065;BME280;20339;49.754;20.158;2023-02-12T01:57:13;97814.52;;;2.40;100.00
34065;BME280;20339;49.754;20.158;2023-02-12T01:59:47;97812.96;;;2.38;100.00
34065;BME280;20339;49.754;20.158;2023-02-12T02:02:19;97816.58;;;2.36;100.00
34065;BME280;20339;49.754;20.158;2023-02-12T02:04:52;97814.61;;;2.35;100.00
34065;BME280;20339;49.754;20.158;2023-02-12T02:07:24;97811.27;;;2.35;100.00
34065;BME280;20339;49.754;20.158;2023-02-12T02:09:55;97816.74;;;2.36;100.00
34065;BME280;20339;49.754;20.158;2023-02-12T02:12:28;97821.26;;;2.38;100.00
34065;BME280;20339;49.754;20.158;2023-02-12T02:15:18;97823.61;;;2.40;100.00
34065;BME280;20339;49.754;20.158;2023-02-12T02:17:55;97829.46;;;2.41;100.00
34065;BME280;20339;49.754;20.158;2023-02-12T02:20:52;97831.52;;;2.40;100.00
34065;BME280;20339;49.754;20.158;2023-02-12T02:23:51;97839.27;;;2.39;100.00
34065;BME280;20339;49.754;20.158;2023-02-12T02:26:56;97846.34;;;2.40;100.00
34065;BME280;20339;49.754;20.158;2023-02-12T02:29:44;97851.45;;;2.41;100.00
34065;BME280;20339;49.754;20.158;2023-02-12T02:32:24;97864.38;;;2.44;100.00
34065;BME280;20339;49.754;20.158;2023-02-12T02:35:01;97872.27;;;2.45;100.00
34065;BME280;20339;49.754;20.158;2023-02-12T02:37:39;97871.86;;;2.46;100.00
34065;BME280;20339;49.754;20.158;2023-02-12T02:40:16;97880.60;;;2.46;100.00
34065;BME280;20339;49.754;20.158;2023-02-12T02:42:52;97887.61;;;2.47;100.00
34065;BME280;20339;49.754;20.158;2023-02-12T02:45:47;97877.88;;;2.48;100.00
34065;BME280;20339;49.754;20.158;2023-02-12T02:48:20;97885.60;;;2.47;100.00
34065;BME280;20339;49.754;20.158;2023-02-12T02:50:58;97893.13;;;2.44;100.00
34065;BME280;20339;49.754;20.158;2023-02-12T02:53:34;97891.73;;;2.42;100.00
34065;BME280;20339;49.754;20.158;2023-02-12T02:56:15;97892.46;;;2.41;100.00
34065;BME280;20339;49.754;20.158;2023-02-12T02:58:50;97904.35;;;2.36;100.00
34065;BME280;20339;49.754;20.158;2023-02-12T03:01:28;97899.75;;;2.34;100.00
34065;BME280;20339;49.754;20.158;2023-02-12T03:04:06;97910.27;;;2.35;100.00
34065;BME280;20339;49.754;20.158;2023-02-12T03:06:42;97902.53;;;2.35;100.00
34065;BME280;20339;49.754;20.158;2023-02-12T03:09:17;97899.23;;;2.38;100.00
34065;BME280;20339;49.754;20.158;2023-02-12T03:11:54;97900.67;;;2.41;100.00
34065;BME280;20339;49.754;20.158;2023-02-12T03:14:30;97905.92;;;2.39;100.00
34065;BME280;20339;49.754;20.158;2023-02-12T03:17:09;97914.63;;;2.39;100.00
34065;BME280;20339;49.754;20.158;2023-02-12T03:19:44;97913.70;;;2.38;100.00
34065;BME280;20339;49.754;20.158;2023-02-12T03:22:19;97921.34;;;2.37;100.00
34065;BME280;20339;49.754;20.158;2023-02-12T03:24:55;97918.48;;;2.36;100.00
34065;BME280;20339;49.754;20.158;2023-02-12T03:27:35;97925.05;;;2.38;100.00
34065;BME280;20339;49.754;20.158;2023-02-12T03:30:11;97931.81;;;2.38;100.00
34065;BME280;20339;49.754;20.158;2023-02-12T03:32:49;97933.16;;;2.37;100.00
34065;BME280;20339;49.754;20.158;2023-02-12T03:35:28;97940.54;;;2.35;100.00
34065;BME280;20339;49.754;20.158;2023-02-12T03:38:10;97951.80;;;2.33;100.00
34065;BME280;20339;49.754;20.158;2023-02-12T03:40:52;97947.85;;;2.31;100.00
34065;BME280;20339;49.754;20.158;2023-02-12T03:43:37;97954.23;;;2.28;100.00
34065;BME280;20339;49.754;20.158;2023-02-12T03:46:16;97954.39;;;2.27;100.00
34065;BME280;20339;49.754;20.158;2023-02-12T03:48:49;97973.95;;;2.24;100.00
34065;BME280;20339;49.754;20.158;2023-02-12T03:51:25;97979.77;;;2.20;100.00
34065;BME280;20339;49.754;20.158;2023-02-12T03:54:01;97979.73;;;2.19;100.00
34065;BME280;20339;49.754;20.158;2023-02-12T03:56:39;97982.49;;;2.17;100.00
34065;BME280;20339;49.754;20.158;2023-02-12T03:59:12;97987.70;;;2.13;100.00
34065;BME280;20339;49.754;20.158;2023-02-12T04:01:44;97991.52;;;2.10;100.00
34065;BME280;20339;49.754;20.158;2023-02-12T04:04:16;97986.46;;;2.04;100.00
34065;BME280;20339;49.754;20.158;2023-02-12T04:06:48;97990.02;;;2.01;100.00
34065;BME280;20339;49.754;20.158;2023-02-12T04:09:21;97992.27;;;2.00;100.00
34065;BME280;20339;49.754;20.158;2023-02-12T04:12:06;98005.30;;;1.99;100.00
34065;BME280;20339;49.754;20.158;2023-02-12T04:14:45;98015.16;;;1.98;100.00
34065;BME280;20339;49.754;20.158;2023-02-12T04:17:28;98020.84;;;1.99;100.00
34065;BME280;20339;49.754;20.158;2023-02-12T04:20:12;98019.34;;;1.98;100.00
34065;BME280;20339;49.754;20.158;2023-02-12T04:22:57;98018.41;;;1.97;100.00
34065;BME280;20339;49.754;20.158;2023-02-12T04:25:44;98025.17;;;1.96;100.00
34065;BME280;20339;49.754;20.158;2023-02-12T04:28:31;98023.23;;;1.95;100.00
34065;BME280;20339;49.754;20.158;2023-02-12T04:31:07;98037.31;;;1.95;100.00
34065;BME280;20339;49.754;20.158;2023-02-12T04:33:48;98041.39;;;1.96;100.00
34065;BME280;20339;49.754;20.158;2023-02-12T04:36:25;98054.50;;;1.99;100.00
34065;BME280;20339;49.754;20.158;2023-02-12T04:39:05;98060.48;;;2.00;100.00
34065;BME280;20339;49.754;20.158;2023-02-12T04:41:39;98056.29;;;1.98;100.00
34065;BME280;20339;49.754;20.158;2023-02-12T04:44:18;98048.23;;;1.96;100.00
34065;BME280;20339;49.754;20.158;2023-02-12T04:46:52;98048.34;;;1.95;100.00
34065;BME280;20339;49.754;20.158;2023-02-12T04:49:25;98055.73;;;1.97;100.00
34065;BME280;20339;49.754;20.158;2023-02-12T04:51:56;98065.64;;;2.02;100.00
34065;BME280;20339;49.754;20.158;2023-02-12T04:54:30;98062.78;;;2.02;100.00
34065;BME280;20339;49.754;20.158;2023-02-12T04:57:01;98072.29;;;2.03;100.00
34065;BME280;20339;49.754;20.158;2023-02-12T04:59:33;98074.17;;;2.02;100.00
34065;BME280;20339;49.754;20.158;2023-02-12T05:02:04;98076.85;;;2.00;100.00
34065;BME280;20339;49.754;20.158;2023-02-12T05:04:37;98083.88;;;1.98;100.00
34065;BME280;20339;49.754;20.158;2023-02-12T05:07:11;98089.70;;;1.97;100.00
34065;BME280;20339;49.754;20.158;2023-02-12T05:09:42;98092.52;;;1.96;100.00
34065;BME280;20339;49.754;20.158;2023-02-12T05:12:13;98096.27;;;1.95;100.00
34065;BME280;20339;49.754;20.158;2023-02-12T05:14:47;98097.40;;;1.93;100.00
34065;BME280;20339;49.754;20.158;2023-02-12T05:17:22;98105.88;;;1.91;100.00
34065;BME280;20339;49.754;20.158;2023-02-12T05:19:56;98112.95;;;1.88;100.00
34065;BME280;20339;49.754;20.158;2023-02-12T05:22:29;98124.64;;;1.87;100.00
34065;BME280;20339;49.754;20.158;2023-02-12T05:25:02;98129.25;;;1.85;100.00
34065;BME280;20339;49.754;20.158;2023-02-12T05:27:36;98126.67;;;1.83;100.00
34065;BME280;20339;49.754;20.158;2023-02-12T05:30:09;98130.03;;;1.81;100.00
34065;BME280;20339;49.754;20.158;2023-02-12T05:32:40;98134.31;;;1.78;100.00
34065;BME280;20339;49.754;20.158;2023-02-12T05:35:15;98145.06;;;1.75;100.00
34065;BME280;20339;49.754;20.158;2023-02-12T05:37:47;98145.05;;;1.71;100.00
34065;BME280;20339;49.754;20.158;2023-02-12T05:40:19;98146.95;;;1.65;100.00
34065;BME280;20339;49.754;20.158;2023-02-12T05:42:51;98153.16;;;1.58;100.00
34065;BME280;20339;49.754;20.158;2023-02-12T05:45:23;98160.29;;;1.54;100.00
34065;BME280;20339;49.754;20.158;2023-02-12T05:47:57;98164.11;;;1.51;100.00
34065;BME280;20339;49.754;20.158;2023-02-12T05:50:31;98168.83;;;1.48;100.00
34065;BME280;20339;49.754;20.158;2023-02-12T05:53:03;98174.79;;;1.46;100.00
34065;BME280;20339;49.754;20.158;2023-02-12T05:55:34;98178.46;;;1.43;100.00
34065;BME280;20339;49.754;20.158;2023-02-12T05:58:07;98179.61;;;1.41;100.00
34065;BME280;20339;49.754;20.158;2023-02-12T06:00:40;98171.30;;;1.40;100.00
34065;BME280;20339;49.754;20.158;2023-02-12T06:03:13;98175.85;;;1.39;100.00
34065;BME280;20339;49.754;20.158;2023-02-12T06:05:50;98175.23;;;1.37;100.00
34065;BME280;20339;49.754;20.158;2023-02-12T06:08:22;98173.15;;;1.34;100.00
34065;BME280;20339;49.754;20.158;2023-02-12T06:10:55;98178.66;;;1.32;100.00
34065;BME280;20339;49.754;20.158;2023-02-12T06:13:29;98179.69;;;1.30;100.00
34065;BME280;20339;49.754;20.158;2023-02-12T06:16:05;98185.42;;;1.29;100.00
34065;BME280;20339;49.754;20.158;2023-02-12T06:18:41;98188.90;;;1.28;100.00
34065;BME280;20339;49.754;20.158;2023-02-12T06:21:17;98200.03;;;1.26;100.00
34065;BME280;20339;49.754;20.158;2023-02-12T06:23:50;98206.70;;;1.26;100.00
34065;BME280;20339;49.754;20.158;2023-02-12T06:26:23;98207.48;;;1.25;100.00
34065;BME280;20339;49.754;20.158;2023-02-12T06:28:56;98216.59;;;1.26;100.00
34065;BME280;20339;49.754;20.158;2023-02-12T06:31:31;98224.29;;;1.29;100.00
34065;BME280;20339;49.754;20.158;2023-02-12T06:34:05;98229.41;;;1.31;100.00
34065;BME280;20339;49.754;20.158;2023-02-12T06:36:42;98229.89;;;1.33;100.00
34065;BME280;20339;49.754;20.158;2023-02-12T06:39:15;98234.25;;;1.34;100.00
34065;BME280;20339;49.754;20.158;2023-02-12T06:41:47;98238.64;;;1.35;100.00
34065;BME280;20339;49.754;20.158;2023-02-12T06:44:19;98238.55;;;1.35;100.00
34065;BME280;20339;49.754;20.158;2023-02-12T06:46:51;98245.17;;;1.35;100.00
34065;BME280;20339;49.754;20.158;2023-02-12T06:49:23;98245.43;;;1.36;100.00
34065;BME280;20339;49.754;20.158;2023-02-12T06:51:54;98246.70;;;1.38;100.00
34065;BME280;20339;49.754;20.158;2023-02-12T06:54:26;98246.43;;;1.39;100.00
34065;BME280;20339;49.754;20.158;2023-02-12T06:56:58;98249.57;;;1.39;100.00
34065;BME280;20339;49.754;20.158;2023-02-12T06:59:30;98253.30;;;1.40;100.00
34065;BME280;20339;49.754;20.158;2023-02-12T07:02:03;98255.76;;;1.42;100.00
34065;BME280;20339;49.754;20.158;2023-02-12T07:04:39;98258.84;;;1.41;100.00
34065;BME280;20339;49.754;20.158;2023-02-12T07:07:14;98259.10;;;1.44;100.00
34065;BME280;20339;49.754;20.158;2023-02-12T07:09:49;98261.23;;;1.49;100.00
34065;BME280;20339;49.754;20.158;2023-02-12T07:12:20;98265.22;;;1.51;100.00
34065;BME280;20339;49.754;20.158;2023-02-12T07:14:52;98270.09;;;1.51;100.00
34065;BME280;20339;49.754;20.158;2023-02-12T07:17:23;98277.88;;;1.53;100.00
34065;BME280;20339;49.754;20.158;2023-02-12T07:19:54;98279.46;;;1.54;100.00
34065;BME280;20339;49.754;20.158;2023-02-12T07:22:27;98281.23;;;1.54;100.00
34065;BME280;20339;49.754;20.158;2023-02-12T07:24:58;98286.09;;;1.51;100.00
34065;BME280;20339;49.754;20.158;2023-02-12T07:27:30;98287.16;;;1.52;100.00
34065;BME280;20339;49.754;20.158;2023-02-12T07:30:01;98284.09;;;1.56;100.00
34065;BME280;20339;49.754;20.158;2023-02-12T07:32:33;98286.05;;;1.65;100.00
34065;BME280;20339;49.754;20.158;2023-02-12T07:35:05;98289.20;;;1.76;100.00
34065;BME280;20339;49.754;20.158;2023-02-12T07:37:36;98290.70;;;1.86;100.00
34065;BME280;20339;49.754;20.158;2023-02-12T07:40:10;98286.89;;;1.87;100.00
34065;BME280;20339;49.754;20.158;2023-02-12T07:42:41;98293.19;;;1.81;100.00
34065;BME280;20339;49.754;20.158;2023-02-12T07:45:13;98294.78;;;1.76;100.00
34065;BME280;20339;49.754;20.158;2023-02-12T07:47:49;98295.84;;;1.69;100.00
34065;BME280;20339;49.754;20.158;2023-02-12T07:50:21;98293.04;;;1.67;100.00
34065;BME280;20339;49.754;20.158;2023-02-12T07:52:52;98300.10;;;1.65;100.00
34065;BME280;20339;49.754;20.158;2023-02-12T07:55:24;98305.95;;;1.65;100.00
34065;BME280;20339;49.754;20.158;2023-02-12T07:57:55;98305.42;;;1.67;100.00
34065;BME280;20339;49.754;20.158;2023-02-12T08:00:27;98313.16;;;1.70;100.00
34065;BME280;20339;49.754;20.158;2023-02-12T08:03:01;98316.53;;;1.66;100.00
34065;BME280;20339;49.754;20.158;2023-02-12T08:05:33;98325.73;;;1.52;100.00
34065;BME280;20339;49.754;20.158;2023-02-12T08:08:04;98328.23;;;1.41;100.00
34065;BME280;20339;49.754;20.158;2023-02-12T08:10:36;98330.63;;;1.40;100.00
34065;BME280;20339;49.754;20.158;2023-02-12T08:13:09;98337.48;;;1.39;100.00
34065;BME280;20339;49.754;20.158;2023-02-12T08:15:41;98337.10;;;1.37;100.00
34065;BME280;20339;49.754;20.158;2023-02-12T08:18:15;98336.80;;;1.36;100.00
34065;BME280;20339;49.754;20.158;2023-02-12T08:20:47;98337.48;;;1.32;100.00
34065;BME280;20339;49.754;20.158;2023-02-12T08:23:21;98336.04;;;1.28;100.00
34065;BME280;20339;49.754;20.158;2023-02-12T08:25:52;98339.75;;;1.23;100.00
34065;BME280;20339;49.754;20.158;2023-02-12T08:28:26;98344.61;;;1.15;100.00
34065;BME280;20339;49.754;20.158;2023-02-12T08:31:03;98345.63;;;1.08;100.00
34065;BME280;20339;49.754;20.158;2023-02-12T08:33:34;98344.11;;;1.03;100.00
34065;BME280;20339;49.754;20.158;2023-02-12T08:36:08;98348.21;;;1.04;100.00
34065;BME280;20339;49.754;20.158;2023-02-12T08:38:40;98350.05;;;1.03;100.00
34065;BME280;20339;49.754;20.158;2023-02-12T08:41:13;98353.33;;;1.01;100.00
34065;BME280;20339;49.754;20.158;2023-02-12T08:43:45;98355.11;;;0.98;100.00
34065;BME280;20339;49.754;20.158;2023-02-12T08:46:18;98357.77;;;0.85;100.00
34065;BME280;20339;49.754;20.158;2023-02-12T08:48:53;98353.02;;;0.75;100.00
34065;BME280;20339;49.754;20.158;2023-02-12T08:51:26;98354.12;;;0.72;100.00
34065;BME280;20339;49.754;20.158;2023-02-12T08:54:00;98354.82;;;0.77;100.00
34065;BME280;20339;49.754;20.158;2023-02-12T08:56:34;98360.48;;;0.86;100.00
34065;BME280;20339;49.754;20.158;2023-02-12T08:59:07;98366.71;;;0.91;100.00
34065;BME280;20339;49.754;20.158;2023-02-12T09:01:39;98371.54;;;0.92;100.00
34065;BME280;20339;49.754;20.158;2023-02-12T09:04:16;98373.42;;;0.92;100.00
34065;BME280;20339;49.754;20.158;2023-02-12T09:06:48;98379.88;;;0.99;100.00
34065;BME280;20339;49.754;20.158;2023-02-12T09:09:20;98382.53;;;1.06;100.00
34065;BME280;20339;49.754;20.158;2023-02-12T09:11:52;98385.38;;;1.04;99.78
34065;BME280;20339;49.754;20.158;2023-02-12T09:14:23;98389.27;;;1.01;99.55
34065;BME280;20339;49.754;20.158;2023-02-12T09:16:55;98397.75;;;1.06;99.87
34065;BME280;20339;49.754;20.158;2023-02-12T09:19:26;98404.84;;;1.09;99.68
34065;BME280;20339;49.754;20.158;2023-02-12T09:21:58;98409.36;;;1.11;99.70
34065;BME280;20339;49.754;20.158;2023-02-12T09:24:29;98407.69;;;1.15;99.58
34065;BME280;20339;49.754;20.158;2023-02-12T09:27:04;98410.84;;;1.19;99.30
34065;BME280;20339;49.754;20.158;2023-02-12T09:29:36;98417.45;;;1.23;99.10
34065;BME280;20339;49.754;20.158;2023-02-12T09:32:08;98416.21;;;1.29;99.25
34065;BME280;20339;49.754;20.158;2023-02-12T09:34:39;98414.81;;;1.35;99.02
34065;BME280;20339;49.754;20.158;2023-02-12T09:37:13;98425.38;;;1.37;98.67
34065;BME280;20339;49.754;20.158;2023-02-12T09:39:46;98427.17;;;1.29;98.13
34065;BME280;20339;49.754;20.158;2023-02-12T09:42:41;98431.69;;;1.18;97.66
34065;BME280;20339;49.754;20.158;2023-02-12T09:45:20;98442.62;;;1.15;97.65
34065;BME280;20339;49.754;20.158;2023-02-12T09:47:59;98443.88;;;1.10;97.58
34065;BME280;20339;49.754;20.158;2023-02-12T09:50:39;98448.30;;;1.08;97.54
34065;BME280;20339;49.754;20.158;2023-02-12T09:53:15;98447.52;;;1.15;97.75
34065;BME280;20339;49.754;20.158;2023-02-12T09:55:53;98449.02;;;1.24;97.83
34065;BME280;20339;49.754;20.158;2023-02-12T09:58:31;98446.06;;;1.25;97.36
34065;BME280;20339;49.754;20.158;2023-02-12T10:01:11;98450.98;;;1.20;96.98
34065;BME280;20339;49.754;20.158;2023-02-12T10:03:44;98449.61;;;1.29;97.03
34065;BME280;20339;49.754;20.158;2023-02-12T10:06:20;98444.05;;;1.35;96.94
34065;BME280;20339;49.754;20.158;2023-02-12T10:11:48;98443.93;;;1.33;95.95
34065;BME280;20339;49.754;20.158;2023-02-12T10:14:50;98444.04;;;1.28;95.74
34065;BME280;20339;49.754;20.158;2023-02-12T10:17:39;98452.48;;;1.32;95.47
34065;BME280;20339;49.754;20.158;2023-02-12T10:20:44;98448.34;;;1.30;95.24
34065;BME280;20339;49.754;20.158;2023-02-12T10:23:31;98452.92;;;1.26;95.14
34065;BME280;20339;49.754;20.158;2023-02-12T10:26:16;98454.15;;;1.38;95.68
34065;BME280;20339;49.754;20.158;2023-02-12T10:28:52;98457.09;;;1.60;95.72
34065;BME280;20339;49.754;20.158;2023-02-12T10:31:30;98457.70;;;1.74;95.24
34065;BME280;20339;49.754;20.158;2023-02-12T10:34:11;98455.30;;;1.81;94.52
34065;BME280;20339;49.754;20.158;2023-02-12T10:36:46;98457.36;;;1.86;94.31
34065;BME280;20339;49.754;20.158;2023-02-12T10:39:23;98459.81;;;2.01;94.30
34065;BME280;20339;49.754;20.158;2023-02-12T10:42:02;98459.88;;;2.05;93.59
34065;BME280;20339;49.754;20.158;2023-02-12T10:44:42;98460.48;;;2.05;93.62
34065;BME280;20339;49.754;20.158;2023-02-12T10:47:19;98461.55;;;2.23;93.88
34065;BME280;20339;49.754;20.158;2023-02-12T10:49:55;98457.44;;;2.37;93.17
34065;BME280;20339;49.754;20.158;2023-02-12T10:52:38;98460.40;;;2.30;91.47
34065;BME280;20339;49.754;20.158;2023-02-12T10:55:26;98455.14;;;2.17;91.25
34065;BME280;20339;49.754;20.158;2023-02-12T10:57:59;98455.61;;;2.13;90.63
34065;BME280;20339;49.754;20.158;2023-02-12T11:00:33;98456.20;;;2.18;90.99
34065;BME280;20339;49.754;20.158;2023-02-12T11:03:21;98459.21;;;2.43;92.05
34065;BME280;20339;49.754;20.158;2023-02-12T11:05:53;98453.52;;;2.76;92.05
34065;BME280;20339;49.754;20.158;2023-02-12T11:08:33;98447.44;;;2.89;91.16
34065;BME280;20339;49.754;20.158;2023-02-12T11:11:03;98442.06;;;2.94;89.95
34065;BME280;20339;49.754;20.158;2023-02-12T11:13:36;98445.50;;;2.86;89.84
34065;BME280;20339;49.754;20.158;2023-02-12T11:16:09;98448.15;;;2.89;89.88
34065;BME280;20339;49.754;20.158;2023-02-12T11:18:43;98447.92;;;2.93;89.97
34065;BME280;20339;49.754;20.158;2023-02-12T11:21:23;98448.16;;;2.90;89.09
34065;BME280;20339;49.754;20.158;2023-02-12T11:23:55;98447.08;;;2.80;88.75
34065;BME280;20339;49.754;20.158;2023-02-12T11:26:28;98444.27;;;2.91;89.38
34065;BME280;20339;49.754;20.158;2023-02-12T11:29:16;98441.23;;;3.00;89.01
34065;BME280;20339;49.754;20.158;2023-02-12T11:32:02;98445.23;;;2.80;86.85
34065;BME280;20339;49.754;20.158;2023-02-12T11:34:34;98444.91;;;2.45;85.53
34065;BME280;20339;49.754;20.158;2023-02-12T11:37:15;98439.08;;;2.33;86.50
34065;BME280;20339;49.754;20.158;2023-02-12T11:39:49;98437.21;;;2.49;86.97
34065;BME280;20339;49.754;20.158;2023-02-12T11:42:25;98439.54;;;2.52;86.89
34065;BME280;20339;49.754;20.158;2023-02-12T11:44:57;98437.94;;;2.66;87.60
34065;BME280;20339;49.754;20.158;2023-02-12T11:47:32;98442.40;;;2.76;87.39
34065;BME280;20339;49.754;20.158;2023-02-12T11:50:14;98441.71;;;2.80;87.23
34065;BME280;20339;49.754;20.158;2023-02-12T11:52:51;98447.43;;;2.79;86.20
34065;BME280;20339;49.754;20.158;2023-02-12T11:55:25;98453.33;;;2.63;85.86
34065;BME280;20339;49.754;20.158;2023-02-12T11:58:03;98452.60;;;2.63;86.39
34065;BME280;20339;49.754;20.158;2023-02-12T12:00:40;98453.79;;;2.65;85.99
34065;BME280;20339;49.754;20.158;2023-02-12T12:03:18;98453.05;;;2.67;86.33
34065;BME280;20339;49.754;20.158;2023-02-12T12:05:53;98456.86;;;2.63;85.68
34065;BME280;20339;49.754;20.158;2023-02-12T12:08:30;98453.65;;;2.66;85.01
34065;BME280;20339;49.754;20.158;2023-02-12T12:11:09;98447.73;;;2.91;85.76
34065;BME280;20339;49.754;20.158;2023-02-12T12:13:48;98442.93;;;3.16;85.30
34065;BME280;20339;49.754;20.158;2023-02-12T12:16:26;98441.75;;;3.14;84.46
34065;BME280;20339;49.754;20.158;2023-02-12T12:19:23;98439.81;;;2.96;84.01
34065;BME280;20339;49.754;20.158;2023-02-12T12:22:38;98441.14;;;2.72;83.80
34065;BME280;20339;49.754;20.158;2023-02-12T12:25:22;98439.98;;;2.67;84.36
34065;BME280;20339;49.754;20.158;2023-02-12T12:28:04;98434.98;;;2.85;84.64
34065;BME280;20339;49.754;20.158;2023-02-12T12:30:52;98429.39;;;2.94;83.91
34065;BME280;20339;49.754;20.158;2023-02-12T12:33:34;98431.80;;;2.99;82.66
34065;BME280;20339;49.754;20.158;2023-02-12T12:36:32;98430.14;;;3.11;83.57
34065;BME280;20339;49.754;20.158;2023-02-12T12:39:16;98428.98;;;3.39;83.66
34065;BME280;20339;49.754;20.158;2023-02-12T12:45:06;98413.83;;;3.54;81.89
34065;BME280;20339;49.754;20.158;2023-02-12T12:47:53;98414.91;;;3.62;81.93
34065;BME280;20339;49.754;20.158;2023-02-12T12:50:46;98410.38;;;3.93;82.49
34065;BME280;20339;49.754;20.158;2023-02-12T12:53:33;98415.38;;;4.07;80.12
34065;BME280;20339;49.754;20.158;2023-02-12T12:56:34;98414.70;;;4.07;79.20
34065;BME280;20339;49.754;20.158;2023-02-12T13:05:35;98418.61;;;4.62;79.14
34065;BME280;20339;49.754;20.158;2023-02-12T13:08:20;98414.70;;;4.87;79.71
34065;BME280;20339;49.754;20.158;2023-02-12T13:11:04;98419.52;;;5.04;79.28
34065;BME280;20339;49.754;20.158;2023-02-12T13:13:46;98422.39;;;5.20;79.08
34065;BME280;20339;49.754;20.158;2023-02-12T13:16:22;98421.92;;;5.31;77.73
34065;BME280;20339;49.754;20.158;2023-02-12T13:19:01;98422.92;;;5.04;75.08
34065;BME280;20339;49.754;20.158;2023-02-12T13:21:45;98431.23;;;4.88;75.63
34065;BME280;20339;49.754;20.158;2023-02-12T13:24:25;98432.79;;;4.92;76.13
34065;BME280;20339;49.754;20.158;2023-02-12T13:27:02;98442.04;;;5.10;76.32
34065;BME280;20339;49.754;20.158;2023-02-12T13:29:42;98437.75;;;5.00;73.76
34065;BME280;20339;49.754;20.158;2023-02-12T13:32:19;98438.32;;;4.99;74.95
34065;BME280;20339;49.754;20.158;2023-02-12T13:34:55;98437.55;;;5.05;73.58
34065;BME280;20339;49.754;20.158;2023-02-12T13:37:34;98444.11;;;5.06;73.48
34065;BME280;20339;49.754;20.158;2023-02-12T13:40:17;98448.20;;;5.21;74.08
34065;BME280;20339;49.754;20.158;2023-02-12T13:42:54;98457.48;;;5.17;72.73
34065;BME280;20339;49.754;20.158;2023-02-12T13:45:39;98452.02;;;5.10;72.59
34065;BME280;20339;49.754;20.158;2023-02-12T13:51:23;98458.96;;;4.78;72.06
34065;BME280;20339;49.754;20.158;2023-02-12T13:54:11;98461.63;;;4.85;72.99
34065;BME280;20339;49.754;20.158;2023-02-12T13:56:47;98456.30;;;5.07;73.62